createdAt,value
2023-01-17T00:00:02.553Z,98933.16
2023-01-17T00:02:29.650Z,98927.34
2023-01-17T00:04:57.127Z,98924.44
2023-01-17T00:07:25.569Z,98925.25
2023-01-17T00:09:52.797Z,98922.59
2023-01-17T00:12:20.874Z,98924.69
2023-01-17T00:14:48.489Z,98924.44
2023-01-17T00:17:15.892Z,98918.84
2023-01-17T00:19:42.974Z,98918.34
2023-01-17T00:22:22.338Z,98923.09
2023-01-17T00:24:49.420Z,98920.75
2023-01-17T00:27:19.941Z,98914.38
2023-01-17T00:29:53.258Z,98890.78
2023-01-17T00:32:21.157Z,98881.81
2023-01-17T00:34:51.361Z,98890.81
2023-01-17T00:37:21.634Z,98903.00
2023-01-17T00:39:51.757Z,98897.44
2023-01-17T00:42:18.872Z,98909.34
2023-01-17T00:44:45.957Z,98904.31
2023-01-17T00:47:13.216Z,98887.63
2023-01-17T00:49:40.398Z,98880.22
2023-01-17T00:52:18.154Z,98877.28
2023-01-17T00:54:47.408Z,98877.56
2023-01-17T00:57:18.590Z,98883.38
2023-01-17T00:59:46.051Z,98872.81
2023-01-17T01:02:14.042Z,98871.75
2023-01-17T01:04:41.182Z,98886.59
2023-01-17T01:07:08.272Z,98880.75
2023-01-17T01:09:35.411Z,98871.22
2023-01-17T01:12:02.511Z,98865.94
2023-01-17T01:14:29.682Z,98859.84
2023-01-17T01:16:57.149Z,98852.97
2023-01-17T01:19:38.760Z,98850.06
2023-01-17T01:22:05.916Z,98845.28
2023-01-17T01:24:33.147Z,98850.59
2023-01-17T01:27:00.278Z,98839.47
2023-01-17T01:29:27.440Z,98841.81
2023-01-17T01:31:54.497Z,98835.22
2023-01-17T01:34:24.970Z,98838.94
2023-01-17T01:36:53.422Z,98831.00
2023-01-17T01:39:20.506Z,98839.44
2023-01-17T01:41:47.549Z,98832.03
2023-01-17T01:44:43.990Z,98818.81
2023-01-17T01:47:15.528Z,98816.19
2023-01-17T01:49:49.897Z,98815.59
2023-01-17T01:52:23.760Z,98810.91
2023-01-17T01:54:56.225Z,98814.06
2023-01-17T01:57:33.311Z,98810.38
2023-01-17T02:00:15.677Z,98806.09
2023-01-17T02:02:44.645Z,98787.06
2023-01-17T02:05:14.317Z,98780.41
2023-01-17T02:07:52.019Z,98768.25
2023-01-17T02:10:20.107Z,98753.72
2023-01-17T02:12:48.006Z,98765.31
2023-01-17T02:15:15.294Z,98770.38
2023-01-17T02:18:19.992Z,98781.75
2023-01-17T02:21:02.362Z,98790.25
2023-01-17T02:23:32.760Z,98794.75
2023-01-17T02:26:37.328Z,98797.91
2023-01-17T02:29:29.076Z,98797.09
2023-01-17T02:32:09.729Z,98791.81
2023-01-17T02:34:58.699Z,98795.53
2023-01-17T02:37:39.792Z,98812.47
2023-01-17T02:40:18.956Z,98809.31
2023-01-17T02:42:52.899Z,98797.41
2023-01-17T02:45:20.914Z,98789.97
2023-01-17T02:47:47.977Z,98790.25
2023-01-17T02:50:22.483Z,98779.91
2023-01-17T02:53:03.248Z,98789.22
2023-01-17T02:55:51.895Z,98773.31
2023-01-17T02:58:36.716Z,98773.31
2023-01-17T03:01:25.978Z,98783.34
2023-01-17T03:04:12.745Z,98791.81
2023-01-17T03:06:44.833Z,98805.56
2023-01-17T03:09:14.428Z,98793.91
2023-01-17T03:11:42.733Z,98801.31
2023-01-17T03:14:10.030Z,98806.13
2023-01-17T03:16:41.984Z,98814.59
2023-01-17T03:19:09.201Z,98814.28
2023-01-17T03:21:36.321Z,98818.25
2023-01-17T03:24:03.794Z,98820.06
2023-01-17T03:26:30.926Z,98832.78
2023-01-17T03:29:03.701Z,98833.22
2023-01-17T03:31:33.628Z,98834.59
2023-01-17T03:34:03.378Z,98830.94
2023-01-17T03:36:33.566Z,98820.88
2023-01-17T03:39:00.633Z,98814.28
2023-01-17T03:41:28.169Z,98810.81
2023-01-17T03:43:55.235Z,98821.41
2023-01-17T03:46:24.741Z,98826.47
2023-01-17T03:48:52.298Z,98821.94
2023-01-17T03:51:20.226Z,98816.66
2023-01-17T03:53:47.744Z,98808.13
2023-01-17T03:56:20.348Z,98808.16
2023-01-17T03:58:47.493Z,98801.25
2023-01-17T04:01:14.776Z,98795.16
2023-01-17T04:03:41.921Z,98802.84
2023-01-17T04:06:09.047Z,98814.50
2023-01-17T04:08:36.394Z,98818.47
2023-01-17T04:11:03.676Z,98818.19
2023-01-17T04:13:32.156Z,98825.59
2023-01-17T04:15:59.348Z,98838.06
2023-01-17T04:18:27.713Z,98833.53
2023-01-17T04:20:56.755Z,98825.59
2023-01-17T04:23:27.166Z,98834.88
2023-01-17T04:25:54.221Z,98835.16
2023-01-17T04:28:21.355Z,98829.31
2023-01-17T04:30:49.357Z,98827.94
2023-01-17T04:33:16.429Z,98825.31
2023-01-17T04:35:43.842Z,98829.03
2023-01-17T04:38:10.926Z,98837.78
2023-01-17T04:40:38.793Z,98834.59
2023-01-17T04:43:05.907Z,98844.13
2023-01-17T04:45:46.095Z,98817.63
2023-01-17T04:48:13.846Z,98821.34
2023-01-17T04:50:41.592Z,98825.84
2023-01-17T04:53:09.291Z,98822.94
2023-01-17T04:55:36.963Z,98840.41
2023-01-17T04:58:04.776Z,98830.66
2023-01-17T05:00:32.709Z,98822.69
2023-01-17T05:03:00.557Z,98821.63
2023-01-17T05:05:28.320Z,98804.41
2023-01-17T05:07:57.453Z,98807.56
2023-01-17T05:10:26.043Z,98823.09
2023-01-17T05:12:58.885Z,98831.63
2023-01-17T05:15:30.705Z,98837.03
2023-01-17T05:18:00.485Z,98833.56
2023-01-17T05:20:29.365Z,98840.69
2023-01-17T05:22:59.485Z,98845.41
2023-01-17T05:25:29.444Z,98846.88
2023-01-17T05:28:05.852Z,98848.59
2023-01-17T05:30:34.260Z,98858.00
2023-01-17T05:33:02.709Z,98854.41
2023-01-17T05:35:32.895Z,98850.75
2023-01-17T05:38:00.047Z,98854.00
2023-01-17T05:40:29.453Z,98855.16
2023-01-17T05:42:58.791Z,98852.25
2023-01-17T05:45:28.045Z,98846.69
2023-01-17T05:47:56.491Z,98841.41
2023-01-17T05:50:33.204Z,98844.06
2023-01-17T05:53:03.638Z,98848.00
2023-01-17T05:55:31.561Z,98850.16
2023-01-17T05:57:59.195Z,98844.81
2023-01-17T06:00:26.272Z,98840.41
2023-01-17T06:02:54.955Z,98821.56
2023-01-17T06:05:23.404Z,98829.50
2023-01-17T06:07:51.566Z,98839.84
2023-01-17T06:10:20.826Z,98842.00
2023-01-17T06:12:48.430Z,98843.59
2023-01-17T06:15:18.317Z,98825.31
2023-01-17T06:17:54.569Z,98840.97
2023-01-17T06:20:21.577Z,98834.88
2023-01-17T06:22:48.862Z,98839.34
2023-01-17T06:25:15.987Z,98831.47
2023-01-17T06:27:43.093Z,98840.94
2023-01-17T06:30:10.809Z,98852.09
2023-01-17T06:32:37.962Z,98865.81
2023-01-17T06:35:05.345Z,98867.91
2023-01-17T06:37:32.405Z,98865.03
2023-01-17T06:39:59.604Z,98870.72
2023-01-17T06:42:26.690Z,98878.88
2023-01-17T06:44:53.846Z,98882.91
2023-01-17T06:47:21.059Z,98875.22
2023-01-17T06:49:48.113Z,98881.66
2023-01-17T06:52:28.492Z,98886.41
2023-01-17T06:54:55.601Z,98893.84
2023-01-17T06:57:25.638Z,98890.69
2023-01-17T06:59:52.824Z,98891.75
2023-01-17T07:02:19.916Z,98903.63
2023-01-17T07:04:47.122Z,98894.09
2023-01-17T07:07:14.192Z,98893.59
2023-01-17T07:09:41.578Z,98896.56
2023-01-17T07:12:08.872Z,98887.81
2023-01-17T07:14:36.101Z,98886.44
2023-01-17T07:17:16.913Z,98888.56
2023-01-17T07:19:45.033Z,98889.09
2023-01-17T07:22:12.337Z,98883.25
2023-01-17T07:24:48.479Z,98899.09
2023-01-17T07:27:15.590Z,98884.88
2023-01-17T07:29:42.742Z,98878.22
2023-01-17T07:32:10.003Z,98867.66
2023-01-17T07:34:37.370Z,98887.78
2023-01-17T07:37:04.759Z,98882.19
2023-01-17T07:39:36.322Z,98890.72
2023-01-17T07:42:07.011Z,98891.75
2023-01-17T07:44:34.281Z,98888.56
2023-01-17T07:47:01.601Z,98885.38
2023-01-17T07:49:28.818Z,98890.19
2023-01-17T07:51:56.086Z,98875.31
2023-01-17T07:54:23.155Z,98880.84
2023-01-17T07:56:50.227Z,98902.25
2023-01-17T07:59:20.001Z,98906.28
2023-01-17T08:01:47.170Z,98912.34
2023-01-17T08:04:14.467Z,98903.84
2023-01-17T08:06:43.696Z,98893.97
2023-01-17T08:09:10.767Z,98895.88
2023-01-17T08:11:42.110Z,98885.78
2023-01-17T08:14:09.349Z,98888.09
2023-01-17T08:16:40.147Z,98889.03
2023-01-17T08:19:07.345Z,98884.66
2023-01-17T08:21:34.476Z,98890.75
2023-01-17T08:24:01.642Z,98889.97
2023-01-17T08:26:28.906Z,98896.25
2023-01-17T08:28:58.580Z,98894.09
2023-01-17T08:31:27.269Z,98907.66
2023-01-17T08:33:54.411Z,98924.69
2023-01-17T08:36:23.021Z,98911.91
2023-01-17T08:38:50.037Z,98922.19
2023-01-17T08:41:17.181Z,98927.41
2023-01-17T08:43:44.339Z,98932.75
2023-01-17T08:46:11.547Z,98933.81
2023-01-17T08:48:40.879Z,98929.53
2023-01-17T08:51:13.573Z,98943.38
2023-01-17T08:53:40.796Z,98931.53
2023-01-17T08:56:09.258Z,98937.28
2023-01-17T08:58:36.796Z,98942.34
2023-01-17T09:01:05.751Z,98926.34
2023-01-17T09:03:34.403Z,98956.22
2023-01-17T09:06:02.718Z,98943.94
2023-01-17T09:08:30.451Z,98931.16
2023-01-17T09:10:57.620Z,98938.06
2023-01-17T09:13:25.033Z,98944.34
2023-01-17T09:15:56.676Z,98946.69
2023-01-17T09:18:25.319Z,98924.53
2023-01-17T09:20:54.931Z,98960.94
2023-01-17T09:23:22.726Z,98946.41
2023-01-17T09:25:58.244Z,98914.13
2023-01-17T09:28:26.784Z,98927.63
2023-01-17T09:30:54.738Z,98925.63
2023-01-17T09:33:21.919Z,98919.31
2023-01-17T09:35:48.986Z,98925.63
2023-01-17T09:38:16.507Z,98924.50
2023-01-17T09:40:47.413Z,98919.25
2023-01-17T09:43:34.259Z,98922.78
2023-01-17T09:46:01.839Z,98919.91
2023-01-17T09:48:37.757Z,98933.78
2023-01-17T09:51:13.498Z,98935.75
2023-01-17T09:53:41.887Z,98933.47
2023-01-17T09:56:19.772Z,98922.50
2023-01-17T09:59:32.224Z,98917.22
2023-01-17T10:02:26.516Z,98917.97
2023-01-17T10:05:00.027Z,98926.13
2023-01-17T10:07:33.411Z,98929.09
2023-01-17T10:10:25.338Z,98938.22
2023-01-17T10:13:07.181Z,98934.72
2023-01-17T10:16:19.377Z,98934.16
2023-01-17T10:19:12.668Z,98932.28
2023-01-17T10:22:09.818Z,98930.91
2023-01-17T10:25:07.645Z,98923.97
2023-01-17T10:27:39.257Z,98938.41
2023-01-17T10:30:17.561Z,98940.28
2023-01-17T10:32:48.437Z,98942.28
2023-01-17T10:35:30.636Z,98936.44
2023-01-17T10:38:00.544Z,98938.19
2023-01-17T10:40:50.114Z,98922.50
2023-01-17T10:43:39.722Z,98924.38
2023-01-17T10:46:15.122Z,98904.06
2023-01-17T10:48:45.842Z,98909.41
2023-01-17T10:51:31.602Z,98897.06
2023-01-17T10:54:19.284Z,98904.22
2023-01-17T10:56:47.619Z,98907.06
2023-01-17T10:59:31.864Z,98900.47
2023-01-17T11:02:00.135Z,98892.28
2023-01-17T11:04:40.249Z,98898.47
2023-01-17T11:07:10.535Z,98888.75
2023-01-17T11:09:45.759Z,98887.50
2023-01-17T11:12:27.674Z,98899.59
2023-01-17T11:15:10.503Z,98903.31
2023-01-17T11:17:46.159Z,98891.28
2023-01-17T11:20:28.142Z,98890.81
2023-01-17T11:23:31.476Z,98883.66
2023-01-17T11:26:01.601Z,98885.81
2023-01-17T11:28:32.064Z,98883.66
2023-01-17T11:31:02.072Z,98876.25
2023-01-17T11:33:40.628Z,98872.09
2023-01-17T11:36:28.312Z,98860.22
2023-01-17T11:39:17.705Z,98861.72
2023-01-17T11:41:46.580Z,98850.94
2023-01-17T11:44:25.859Z,98849.75
2023-01-17T11:47:11.558Z,98858.59
2023-01-17T11:49:46.665Z,98854.66
2023-01-17T11:52:25.034Z,98844.50
2023-01-17T11:54:55.236Z,98844.09
2023-01-17T11:57:33.329Z,98838.50
2023-01-17T12:00:19.507Z,98844.72
2023-01-17T12:03:09.925Z,98839.59
2023-01-17T12:05:40.356Z,98837.25
2023-01-17T12:08:28.763Z,98829.88
2023-01-17T12:11:08.260Z,98834.84
2023-01-17T12:13:46.901Z,98847.78
2023-01-17T12:16:31.111Z,98846.03
2023-01-17T12:19:05.901Z,98835.59
2023-01-17T12:22:11.320Z,98825.16
2023-01-17T12:24:41.925Z,98831.09
2023-01-17T12:27:45.541Z,98822.22
2023-01-17T12:30:24.749Z,98807.69
2023-01-17T12:33:22.860Z,98799.81
2023-01-17T12:36:02.283Z,98800.00
2023-01-17T12:38:36.907Z,98796.78
2023-01-17T12:41:09.938Z,98794.13
2023-01-17T12:43:41.082Z,98798.03
2023-01-17T12:46:21.409Z,98801.47
2023-01-17T12:48:54.226Z,98797.59
2023-01-17T12:51:25.073Z,98795.03
2023-01-17T12:54:14.164Z,98791.88
2023-01-17T12:56:49.016Z,98806.00
2023-01-17T12:59:32.711Z,98809.34
2023-01-17T13:02:03.931Z,98816.78
2023-01-17T13:04:58.425Z,98798.56
2023-01-17T13:07:32.061Z,98798.56
2023-01-17T13:10:11.697Z,98791.28
2023-01-17T13:12:39.595Z,98799.28
2023-01-17T13:15:19.264Z,98803.94
2023-01-17T13:17:51.305Z,98799.22
2023-01-17T13:20:42.824Z,98788.53
2023-01-17T13:23:41.108Z,98788.16
2023-01-17T13:26:26.436Z,98784.19
2023-01-17T13:29:16.616Z,98791.84
2023-01-17T13:32:02.775Z,98789.94
2023-01-17T13:34:48.657Z,98794.09
2023-01-17T13:37:33.891Z,98793.00
2023-01-17T13:40:29.440Z,98790.72
2023-01-17T13:43:14.878Z,98789.50
2023-01-17T13:45:51.834Z,98794.22
2023-01-17T13:48:19.036Z,98786.59
2023-01-17T13:50:55.969Z,98781.97
2023-01-17T13:53:29.000Z,98780.41
2023-01-17T13:56:13.442Z,98778.53
2023-01-17T13:58:46.735Z,98767.66
2023-01-17T14:01:14.935Z,98766.47
2023-01-17T14:03:50.282Z,98765.50
2023-01-17T14:06:38.028Z,98759.47
2023-01-17T14:09:42.124Z,98767.31
2023-01-17T14:12:09.208Z,98760.38
2023-01-17T14:14:36.370Z,98762.72
2023-01-17T14:17:36.800Z,98770.06
2023-01-17T14:20:10.127Z,98765.91
2023-01-17T14:22:41.538Z,98769.69
2023-01-17T14:25:11.819Z,98767.13
2023-01-17T14:27:41.908Z,98768.09
2023-01-17T14:30:38.040Z,98754.06
2023-01-17T14:33:33.074Z,98755.34
2023-01-17T14:36:06.317Z,98759.09
2023-01-17T14:38:34.577Z,98760.19
2023-01-17T14:41:06.434Z,98769.31
2023-01-17T14:43:37.673Z,98769.56
2023-01-17T14:46:14.288Z,98765.91
2023-01-17T14:48:41.657Z,98752.84
2023-01-17T14:51:23.229Z,98753.81
2023-01-17T14:54:00.285Z,98755.19
2023-01-17T14:56:29.204Z,98740.88
2023-01-17T14:59:19.080Z,98744.56
2023-01-17T15:02:06.697Z,98747.34
2023-01-17T15:04:34.846Z,98752.13
2023-01-17T15:07:02.374Z,98754.47
2023-01-17T15:09:35.278Z,98765.84
2023-01-17T15:12:03.102Z,98763.00
2023-01-17T15:14:36.229Z,98769.41
2023-01-17T15:17:16.644Z,98769.47
2023-01-17T15:19:45.471Z,98768.75
2023-01-17T15:22:13.024Z,98758.22
2023-01-17T15:24:43.582Z,98760.03
2023-01-17T15:27:15.304Z,98767.25
2023-01-17T15:29:45.552Z,98754.31
2023-01-17T15:32:24.669Z,98758.09
2023-01-17T15:34:52.409Z,98765.94
2023-01-17T15:37:24.386Z,98759.81
2023-01-17T15:39:52.171Z,98755.44
2023-01-17T15:42:30.911Z,98755.47
2023-01-17T15:45:05.158Z,98750.72
2023-01-17T15:47:37.154Z,98744.06
2023-01-17T15:50:27.514Z,98744.03
2023-01-17T15:53:05.168Z,98750.19
2023-01-17T15:55:39.543Z,98742.63
2023-01-17T15:58:25.000Z,98739.97
2023-01-17T16:00:52.386Z,98742.06
2023-01-17T16:03:19.576Z,98738.47
2023-01-17T16:05:47.469Z,98746.22
2023-01-17T16:08:26.154Z,98752.72
2023-01-17T16:10:55.665Z,98743.72
2023-01-17T16:13:22.761Z,98747.13
2023-01-17T16:15:49.906Z,98742.94
2023-01-17T16:18:23.062Z,98746.97
2023-01-17T16:20:57.257Z,98736.31
2023-01-17T16:23:24.520Z,98727.47
2023-01-17T16:25:51.655Z,98733.84
2023-01-17T16:28:19.096Z,98733.34
2023-01-17T16:30:46.674Z,98736.50
2023-01-17T16:33:13.878Z,98738.06
2023-01-17T16:35:41.348Z,98737.13
2023-01-17T16:38:12.488Z,98734.88
2023-01-17T16:40:43.099Z,98728.38
2023-01-17T16:43:11.466Z,98730.25
2023-01-17T16:45:47.417Z,98730.16
2023-01-17T16:48:16.349Z,98729.00
2023-01-17T16:50:47.914Z,98730.50
2023-01-17T16:53:15.969Z,98734.97
2023-01-17T16:55:44.324Z,98722.03
2023-01-17T16:58:11.635Z,98722.13
2023-01-17T17:00:42.299Z,98719.09
2023-01-17T17:03:18.762Z,98698.09
2023-01-17T17:05:55.223Z,98687.66
2023-01-17T17:08:22.386Z,98681.56
2023-01-17T17:10:53.000Z,98674.13
2023-01-17T17:13:20.111Z,98669.69
2023-01-17T17:15:47.484Z,98661.22
2023-01-17T17:18:16.691Z,98651.78
2023-01-17T17:20:44.933Z,98638.56
2023-01-17T17:23:12.648Z,98633.66
2023-01-17T17:25:41.234Z,98622.78
2023-01-17T17:28:10.486Z,98627.91
2023-01-17T17:30:37.697Z,98634.59
2023-01-17T17:33:04.859Z,98630.16
2023-01-17T17:35:35.207Z,98632.13
2023-01-17T17:38:02.381Z,98624.19
2023-01-17T17:40:29.409Z,98611.53
2023-01-17T17:42:57.247Z,98613.28
2023-01-17T17:45:24.339Z,98631.50
2023-01-17T17:47:51.594Z,98620.16
2023-01-17T17:50:19.409Z,98632.69
2023-01-17T17:52:49.123Z,98629.34
2023-01-17T17:55:16.750Z,98628.16
2023-01-17T17:57:43.908Z,98628.72
2023-01-17T18:00:11.980Z,98622.44
2023-01-17T18:02:39.214Z,98616.09
2023-01-17T18:05:06.966Z,98611.47
2023-01-17T18:07:34.069Z,98598.44
2023-01-17T18:10:01.537Z,98606.66
2023-01-17T18:12:28.723Z,98612.06
2023-01-17T18:14:55.938Z,98604.84
2023-01-17T18:17:23.010Z,98594.59
2023-01-17T18:19:50.288Z,98593.72
2023-01-17T18:22:17.391Z,98586.94
2023-01-17T18:24:44.661Z,98595.06
2023-01-17T18:27:12.105Z,98588.31
2023-01-17T18:29:39.257Z,98588.69
2023-01-17T18:32:06.706Z,98590.88
2023-01-17T18:34:33.868Z,98598.16
2023-01-17T18:37:01.184Z,98596.56
2023-01-17T18:39:29.832Z,98604.66
2023-01-17T18:41:57.793Z,98601.69
2023-01-17T18:44:25.526Z,98595.50
2023-01-17T18:46:53.963Z,98596.75
2023-01-17T18:49:21.784Z,98595.66
2023-01-17T18:51:49.717Z,98589.84
2023-01-17T18:54:18.647Z,98589.16
2023-01-17T18:56:45.917Z,98577.81
2023-01-17T18:59:14.356Z,98561.91
2023-01-17T19:01:41.873Z,98568.34
2023-01-17T19:04:10.190Z,98564.97
2023-01-17T19:06:40.394Z,98571.91
2023-01-17T19:09:08.989Z,98569.75
2023-01-17T19:11:36.476Z,98570.25
2023-01-17T19:14:04.238Z,98582.72
2023-01-17T19:16:34.845Z,98576.00
2023-01-17T19:19:05.434Z,98583.78
2023-01-17T19:21:33.304Z,98588.81
2023-01-17T19:24:00.581Z,98580.97
2023-01-17T19:26:28.398Z,98565.34
2023-01-17T19:28:57.650Z,98561.75
2023-01-17T19:31:27.604Z,98557.97
2023-01-17T19:33:56.771Z,98550.41
2023-01-17T19:36:31.253Z,98541.09
2023-01-17T19:39:04.882Z,98549.03
2023-01-17T19:41:35.137Z,98551.13
2023-01-17T19:44:05.288Z,98552.72
2023-01-17T19:46:33.359Z,98555.16
2023-01-17T19:49:02.444Z,98558.53
2023-01-17T19:51:30.061Z,98557.72
2023-01-17T19:53:58.215Z,98543.19
2023-01-17T19:56:26.462Z,98553.13
2023-01-17T19:58:54.225Z,98545.88
2023-01-17T20:01:25.058Z,98546.91
2023-01-17T20:03:52.561Z,98534.75
2023-01-17T20:06:24.927Z,98524.41
2023-01-17T20:08:52.110Z,98529.94
2023-01-17T20:11:22.177Z,98533.56
2023-01-17T20:13:52.439Z,98524.69
2023-01-17T20:16:20.709Z,98526.13
2023-01-17T20:18:47.864Z,98520.78
2023-01-17T20:21:18.290Z,98523.19
2023-01-17T20:23:47.194Z,98514.84
2023-01-17T20:26:20.780Z,98505.28
2023-01-17T20:28:50.065Z,98503.84
2023-01-17T20:31:20.314Z,98504.38
2023-01-17T20:33:48.695Z,98516.28
2023-01-17T20:36:17.857Z,98508.88
2023-01-17T20:38:45.737Z,98506.44
2023-01-17T20:41:16.741Z,98505.22
2023-01-17T20:43:45.673Z,98506.44
2023-01-17T20:46:13.852Z,98500.94
2023-01-17T20:48:52.682Z,98490.34
2023-01-17T20:51:21.154Z,98490.13
2023-01-17T20:53:53.613Z,98491.56
2023-01-17T20:56:20.979Z,98489.09
2023-01-17T20:58:49.570Z,98490.25
2023-01-17T21:01:19.359Z,98484.69
2023-01-17T21:03:49.320Z,98489.03
2023-01-17T21:06:17.496Z,98485.38
2023-01-17T21:08:46.316Z,98489.44
2023-01-17T21:11:15.684Z,98501.13
2023-01-17T21:13:43.755Z,98489.59
2023-01-17T21:16:17.509Z,98488.34
2023-01-17T21:18:49.862Z,98483.31
2023-01-17T21:21:20.541Z,98492.50
2023-01-17T21:23:50.022Z,98481.50
2023-01-17T21:26:18.807Z,98465.56
2023-01-17T21:28:47.300Z,98461.19
2023-01-17T21:31:22.882Z,98463.94
2023-01-17T21:33:51.042Z,98460.50
2023-01-17T21:36:19.810Z,98459.88
2023-01-17T21:38:48.490Z,98458.28
2023-01-17T21:41:15.882Z,98453.50
2023-01-17T21:43:43.519Z,98449.56
2023-01-17T21:46:12.040Z,98446.41
2023-01-17T21:48:41.675Z,98447.28
2023-01-17T21:51:13.486Z,98453.84
2023-01-17T21:53:43.420Z,98448.34
2023-01-17T21:56:14.142Z,98449.00
2023-01-17T21:58:44.277Z,98446.03
2023-01-17T22:01:17.909Z,98429.84
2023-01-17T22:03:57.677Z,98431.09
2023-01-17T22:06:34.967Z,98415.84
2023-01-17T22:09:03.960Z,98412.56
2023-01-17T22:11:36.326Z,98415.53
2023-01-17T22:14:04.560Z,98412.56
2023-01-17T22:16:32.175Z,98409.56
2023-01-17T22:18:59.529Z,98407.34
2023-01-17T22:21:28.425Z,98410.97
2023-01-17T22:23:58.026Z,98408.63
2023-01-17T22:26:28.174Z,98411.00
2023-01-17T22:28:55.914Z,98418.34
2023-01-17T22:31:26.056Z,98409.25
2023-01-17T22:34:02.101Z,98416.63
2023-01-17T22:36:31.991Z,98403.75
2023-01-17T22:38:59.584Z,98412.41
2023-01-17T22:41:29.398Z,98406.22
2023-01-17T22:43:59.399Z,98402.59
2023-01-17T22:46:28.959Z,98408.38
2023-01-17T22:48:57.337Z,98398.19
2023-01-17T22:51:26.987Z,98396.63
2023-01-17T22:53:56.596Z,98407.13
2023-01-17T22:56:27.130Z,98401.34
2023-01-17T22:58:54.476Z,98389.75
2023-01-17T23:01:24.460Z,98387.06
2023-01-17T23:03:54.014Z,98393.50
2023-01-17T23:06:24.645Z,98394.44
2023-01-17T23:08:54.759Z,98392.28
2023-01-17T23:11:38.977Z,98403.59
2023-01-17T23:14:15.162Z,98404.66
2023-01-17T23:16:46.454Z,98413.13
2023-01-17T23:19:13.865Z,98402.13
2023-01-17T23:21:41.118Z,98408.88
2023-01-17T23:24:08.462Z,98421.09
2023-01-17T23:26:36.811Z,98408.34
2023-01-17T23:29:04.149Z,98416.56
2023-01-17T23:31:31.387Z,98421.72
2023-01-17T23:33:58.654Z,98416.50
2023-01-17T23:36:26.114Z,98417.44
2023-01-17T23:38:53.558Z,98422.22
2023-01-17T23:41:20.890Z,98419.22
2023-01-17T23:43:56.327Z,98413.22
2023-01-17T23:46:25.477Z,98416.84
2023-01-17T23:48:52.903Z,98416.28
2023-01-17T23:51:20.225Z,98423.16
2023-01-17T23:53:47.760Z,98417.97
2023-01-17T23:56:23.566Z,98416.53
2023-01-17T23:58:50.969Z,98412.03
